sensor_id;sensor_type;location;lat;lon;timestamp;P1;durP1;ratioP1;P2;durP2;ratioP2
49710;SDS011;35602;44.534;18.696;2022-11-23T00:01:31;65.68;;;53.87;;
49710;SDS011;35602;44.534;18.696;2022-11-23T00:06:33;61.83;;;52.95;;
49710;SDS011;35602;44.534;18.696;2022-11-23T00:11:34;61.90;;;52.80;;
49710;SDS011;35602;44.534;18.696;2022-11-23T00:16:35;58.03;;;51.45;;
49710;SDS011;35602;44.534;18.696;2022-11-23T00:21:36;60.75;;;51.17;;
49710;SDS011;35602;44.534;18.696;2022-11-23T00:26:37;59.67;;;49.97;;
49710;SDS011;35602;44.534;18.696;2022-11-23T00:31:38;60.70;;;51.22;;
49710;SDS011;35602;44.534;18.696;2022-11-23T00:36:39;60.67;;;51.40;;
49710;SDS011;35602;44.534;18.696;2022-11-23T00:41:40;56.97;;;47.80;;
49710;SDS011;35602;44.534;18.696;2022-11-23T00:46:41;57.70;;;49.25;;
49710;SDS011;35602;44.534;18.696;2022-11-23T00:51:41;59.55;;;49.78;;
49710;SDS011;35602;44.534;18.696;2022-11-23T00:56:42;57.25;;;48.72;;
49710;SDS011;35602;44.534;18.696;2022-11-23T01:01:43;54.70;;;47.03;;
49710;SDS011;35602;44.534;18.696;2022-11-23T01:06:44;58.55;;;49.97;;
49710;SDS011;35602;44.534;18.696;2022-11-23T01:11:44;52.80;;;45.30;;
49710;SDS011;35602;44.534;18.696;2022-11-23T01:16:45;54.70;;;45.92;;
49710;SDS011;35602;44.534;18.696;2022-11-23T01:21:46;55.72;;;46.53;;
49710;SDS011;35602;44.534;18.696;2022-11-23T01:26:53;51.85;;;44.13;;
49710;SDS011;35602;44.534;18.696;2022-11-23T01:31:55;53.50;;;45.12;;
49710;SDS011;35602;44.534;18.696;2022-11-23T01:36:55;52.83;;;45.88;;
49710;SDS011;35602;44.534;18.696;2022-11-23T01:41:56;52.42;;;44.70;;
49710;SDS011;35602;44.534;18.696;2022-11-23T01:47:06;52.72;;;44.53;;
49710;SDS011;35602;44.534;18.696;2022-11-23T01:52:12;52.53;;;44.15;;
49710;SDS011;35602;44.534;18.696;2022-11-23T01:57:25;50.92;;;43.47;;
49710;SDS011;35602;44.534;18.696;2022-11-23T02:02:32;50.75;;;43.72;;
49710;SDS011;35602;44.534;18.696;2022-11-23T02:07:35;50.20;;;41.88;;
49710;SDS011;35602;44.534;18.696;2022-11-23T02:12:37;47.92;;;41.40;;
49710;SDS011;35602;44.534;18.696;2022-11-23T02:17:38;50.90;;;44.03;;
49710;SDS011;35602;44.534;18.696;2022-11-23T02:30:37;46.35;;;40.30;;
49710;SDS011;35602;44.534;18.696;2022-11-23T02:35:48;49.10;;;41.50;;
49710;SDS011;35602;44.534;18.696;2022-11-23T02:40:51;46.50;;;39.95;;
49710;SDS011;35602;44.534;18.696;2022-11-23T02:45:53;43.95;;;38.88;;
49710;SDS011;35602;44.534;18.696;2022-11-23T02:50:56;45.80;;;38.78;;
49710;SDS011;35602;44.534;18.696;2022-11-23T02:55:57;44.67;;;38.17;;
49710;SDS011;35602;44.534;18.696;2022-11-23T03:00:58;46.05;;;38.95;;
49710;SDS011;35602;44.534;18.696;2022-11-23T03:05:58;45.33;;;39.67;;
49710;SDS011;35602;44.534;18.696;2022-11-23T03:11:00;44.53;;;37.40;;
49710;SDS011;35602;44.534;18.696;2022-11-23T03:16:01;45.12;;;38.00;;
49710;SDS011;35602;44.534;18.696;2022-11-23T03:21:02;41.45;;;35.88;;
49710;SDS011;35602;44.534;18.696;2022-11-23T03:26:04;42.08;;;36.20;;
49710;SDS011;35602;44.534;18.696;2022-11-23T03:31:05;43.35;;;37.03;;
49710;SDS011;35602;44.534;18.696;2022-11-23T03:36:07;42.70;;;36.80;;
49710;SDS011;35602;44.534;18.696;2022-11-23T03:41:08;43.03;;;35.72;;
49710;SDS011;35602;44.534;18.696;2022-11-23T03:46:08;40.65;;;35.55;;
49710;SDS011;35602;44.534;18.696;2022-11-23T03:51:09;42.25;;;36.30;;
49710;SDS011;35602;44.534;18.696;2022-11-23T03:56:10;41.35;;;35.50;;
49710;SDS011;35602;44.534;18.696;2022-11-23T04:01:11;40.20;;;33.72;;
49710;SDS011;35602;44.534;18.696;2022-11-23T04:06:11;40.45;;;34.22;;
49710;SDS011;35602;44.534;18.696;2022-11-23T04:11:12;39.25;;;33.95;;
49710;SDS011;35602;44.534;18.696;2022-11-23T04:16:13;38.58;;;32.42;;
49710;SDS011;35602;44.534;18.696;2022-11-23T04:21:14;40.20;;;35.13;;
49710;SDS011;35602;44.534;18.696;2022-11-23T04:26:15;39.88;;;34.25;;
49710;SDS011;35602;44.534;18.696;2022-11-23T04:31:15;36.35;;;32.35;;
49710;SDS011;35602;44.534;18.696;2022-11-23T04:36:16;37.22;;;32.42;;
49710;SDS011;35602;44.534;18.696;2022-11-23T04:41:17;37.47;;;32.38;;
49710;SDS011;35602;44.534;18.696;2022-11-23T04:46:18;37.28;;;32.15;;
49710;SDS011;35602;44.534;18.696;2022-11-23T04:51:19;37.03;;;31.95;;
49710;SDS011;35602;44.534;18.696;2022-11-23T04:56:20;35.95;;;31.35;;
49710;SDS011;35602;44.534;18.696;2022-11-23T05:01:21;36.03;;;31.58;;
49710;SDS011;35602;44.534;18.696;2022-11-23T05:06:22;37.00;;;31.42;;
49710;SDS011;35602;44.534;18.696;2022-11-23T05:11:22;34.80;;;29.67;;
49710;SDS011;35602;44.534;18.696;2022-11-23T05:16:23;34.95;;;29.92;;
49710;SDS011;35602;44.534;18.696;2022-11-23T05:21:24;36.65;;;30.55;;
49710;SDS011;35602;44.534;18.696;2022-11-23T05:26:25;35.33;;;29.98;;
49710;SDS011;35602;44.534;18.696;2022-11-23T05:31:25;34.80;;;29.98;;
49710;SDS011;35602;44.534;18.696;2022-11-23T05:36:26;34.47;;;29.65;;
49710;SDS011;35602;44.534;18.696;2022-11-23T05:41:27;32.53;;;27.92;;
49710;SDS011;35602;44.534;18.696;2022-11-23T05:46:28;33.67;;;28.80;;
49710;SDS011;35602;44.534;18.696;2022-11-23T05:51:28;35.47;;;29.35;;
49710;SDS011;35602;44.534;18.696;2022-11-23T05:56:31;32.35;;;26.80;;
49710;SDS011;35602;44.534;18.696;2022-11-23T06:01:31;36.40;;;30.02;;
49710;SDS011;35602;44.534;18.696;2022-11-23T06:06:33;33.88;;;28.75;;
49710;SDS011;35602;44.534;18.696;2022-11-23T06:11:33;31.73;;;28.23;;
49710;SDS011;35602;44.534;18.696;2022-11-23T06:16:34;32.63;;;27.75;;
49710;SDS011;35602;44.534;18.696;2022-11-23T06:21:35;33.03;;;27.02;;
49710;SDS011;35602;44.534;18.696;2022-11-23T06:26:36;33.90;;;28.77;;
49710;SDS011;35602;44.534;18.696;2022-11-23T06:31:37;33.63;;;28.65;;
49710;SDS011;35602;44.534;18.696;2022-11-23T06:36:37;34.03;;;28.35;;
49710;SDS011;35602;44.534;18.696;2022-11-23T06:41:38;32.63;;;28.25;;
49710;SDS011;35602;44.534;18.696;2022-11-23T06:46:39;33.33;;;28.27;;
49710;SDS011;35602;44.534;18.696;2022-11-23T06:51:40;35.97;;;30.75;;
49710;SDS011;35602;44.534;18.696;2022-11-23T06:56:41;34.05;;;29.87;;
49710;SDS011;35602;44.534;18.696;2022-11-23T07:01:41;34.70;;;28.92;;
49710;SDS011;35602;44.534;18.696;2022-11-23T07:06:42;34.55;;;30.08;;
49710;SDS011;35602;44.534;18.696;2022-11-23T07:11:43;35.90;;;30.60;;
49710;SDS011;35602;44.534;18.696;2022-11-23T07:16:44;35.55;;;30.80;;
49710;SDS011;35602;44.534;18.696;2022-11-23T07:21:45;36.97;;;31.60;;
49710;SDS011;35602;44.534;18.696;2022-11-23T07:26:46;41.22;;;33.22;;
49710;SDS011;35602;44.534;18.696;2022-11-23T07:31:47;36.78;;;30.98;;
49710;SDS011;35602;44.534;18.696;2022-11-23T07:36:48;38.10;;;32.40;;
49710;SDS011;35602;44.534;18.696;2022-11-23T07:41:49;41.92;;;33.90;;
49710;SDS011;35602;44.534;18.696;2022-11-23T07:46:52;38.25;;;33.08;;
49710;SDS011;35602;44.534;18.696;2022-11-23T07:51:53;39.65;;;32.70;;
49710;SDS011;35602;44.534;18.696;2022-11-23T07:56:55;38.63;;;32.85;;
49710;SDS011;35602;44.534;18.696;2022-11-23T08:01:56;41.17;;;34.35;;
49710;SDS011;35602;44.534;18.696;2022-11-23T08:06:56;43.67;;;36.75;;
49710;SDS011;35602;44.534;18.696;2022-11-23T08:11:57;46.80;;;39.10;;
49710;SDS011;35602;44.534;18.696;2022-11-23T08:16:58;50.78;;;41.37;;
49710;SDS011;35602;44.534;18.696;2022-11-23T08:21:59;52.35;;;42.70;;
49710;SDS011;35602;44.534;18.696;2022-11-23T08:27:00;55.00;;;44.42;;
49710;SDS011;35602;44.534;18.696;2022-11-23T08:32:01;57.85;;;47.75;;
49710;SDS011;35602;44.534;18.696;2022-11-23T08:37:01;61.97;;;50.15;;
49710;SDS011;35602;44.534;18.696;2022-11-23T08:42:02;64.03;;;52.40;;
49710;SDS011;35602;44.534;18.696;2022-11-23T08:47:03;64.78;;;51.45;;
49710;SDS011;35602;44.534;18.696;2022-11-23T08:52:04;70.65;;;54.85;;
49710;SDS011;35602;44.534;18.696;2022-11-23T08:57:05;77.37;;;56.50;;
49710;SDS011;35602;44.534;18.696;2022-11-23T09:02:07;77.35;;;56.47;;
49710;SDS011;35602;44.534;18.696;2022-11-23T09:07:09;73.18;;;56.03;;
49710;SDS011;35602;44.534;18.696;2022-11-23T09:12:10;76.82;;;56.78;;
49710;SDS011;35602;44.534;18.696;2022-11-23T09:17:11;78.95;;;59.83;;
49710;SDS011;35602;44.534;18.696;2022-11-23T09:22:12;85.30;;;62.10;;
49710;SDS011;35602;44.534;18.696;2022-11-23T09:27:13;81.95;;;62.67;;
49710;SDS011;35602;44.534;18.696;2022-11-23T09:32:14;87.78;;;65.28;;
49710;SDS011;35602;44.534;18.696;2022-11-23T09:37:15;97.18;;;63.47;;
49710;SDS011;35602;44.534;18.696;2022-11-23T09:42:28;89.20;;;64.85;;
49710;SDS011;35602;44.534;18.696;2022-11-23T09:49:11;98.85;;;67.40;;
49710;SDS011;35602;44.534;18.696;2022-11-23T09:54:26;93.97;;;67.33;;
49710;SDS011;35602;44.534;18.696;2022-11-23T09:59:38;104.05;;;72.32;;
49710;SDS011;35602;44.534;18.696;2022-11-23T10:04:41;104.45;;;76.22;;
49710;SDS011;35602;44.534;18.696;2022-11-23T10:09:49;112.20;;;78.50;;
49710;SDS011;35602;44.534;18.696;2022-11-23T10:15:12;105.93;;;77.05;;
49710;SDS011;35602;44.534;18.696;2022-11-23T10:25:51;134.02;;;91.40;;
49710;SDS011;35602;44.534;18.696;2022-11-23T10:30:54;128.07;;;90.87;;
49710;SDS011;35602;44.534;18.696;2022-11-23T10:36:01;131.52;;;95.80;;
49710;SDS011;35602;44.534;18.696;2022-11-23T10:41:10;135.18;;;97.00;;
49710;SDS011;35602;44.534;18.696;2022-11-23T10:52:32;143.68;;;103.95;;
49710;SDS011;35602;44.534;18.696;2022-11-23T10:57:33;142.25;;;105.35;;
49710;SDS011;35602;44.534;18.696;2022-11-23T11:02:46;139.85;;;104.12;;
49710;SDS011;35602;44.534;18.696;2022-11-23T11:07:48;154.12;;;109.78;;
49710;SDS011;35602;44.534;18.696;2022-11-23T11:12:50;168.30;;;116.90;;
49710;SDS011;35602;44.534;18.696;2022-11-23T11:17:59;159.32;;;119.30;;
49710;SDS011;35602;44.534;18.696;2022-11-23T11:23:10;167.73;;;121.45;;
49710;SDS011;35602;44.534;18.696;2022-11-23T11:28:24;163.50;;;120.57;;
49710;SDS011;35602;44.534;18.696;2022-11-23T11:33:39;166.75;;;120.53;;
49710;SDS011;35602;44.534;18.696;2022-11-23T11:38:48;168.95;;;121.95;;
49710;SDS011;35602;44.534;18.696;2022-11-23T11:43:58;177.55;;;129.48;;
49710;SDS011;35602;44.534;18.696;2022-11-23T11:55:27;177.45;;;130.82;;
49710;SDS011;35602;44.534;18.696;2022-11-23T12:01:28;179.25;;;133.30;;
49710;SDS011;35602;44.534;18.696;2022-11-23T12:06:51;180.35;;;132.07;;
49710;SDS011;35602;44.534;18.696;2022-11-23T12:11:58;188.90;;;135.63;;
49710;SDS011;35602;44.534;18.696;2022-11-23T12:17:05;182.20;;;134.57;;
49710;SDS011;35602;44.534;18.696;2022-11-23T12:31:47;196.65;;;142.82;;
49710;SDS011;35602;44.534;18.696;2022-11-23T12:37:07;177.18;;;134.95;;
49710;SDS011;35602;44.534;18.696;2022-11-23T12:42:47;183.65;;;136.55;;
49710;SDS011;35602;44.534;18.696;2022-11-23T12:48:55;182.23;;;139.00;;
49710;SDS011;35602;44.534;18.696;2022-11-23T12:57:09;183.43;;;138.43;;
49710;SDS011;35602;44.534;18.696;2022-11-23T13:09:31;192.60;;;142.70;;
49710;SDS011;35602;44.534;18.696;2022-11-23T13:33:40;187.27;;;134.32;;
49710;SDS011;35602;44.534;18.696;2022-11-23T13:38:51;180.87;;;135.25;;
49710;SDS011;35602;44.534;18.696;2022-11-23T13:43:52;195.57;;;140.05;;
49710;SDS011;35602;44.534;18.696;2022-11-23T13:48:57;190.70;;;139.65;;
49710;SDS011;35602;44.534;18.696;2022-11-23T13:54:03;184.05;;;134.32;;
49710;SDS011;35602;44.534;18.696;2022-11-23T13:59:28;184.40;;;134.20;;
49710;SDS011;35602;44.534;18.696;2022-11-23T14:04:40;186.77;;;137.18;;
49710;SDS011;35602;44.534;18.696;2022-11-23T14:09:53;192.10;;;140.25;;
49710;SDS011;35602;44.534;18.696;2022-11-23T14:15:06;183.43;;;132.43;;
49710;SDS011;35602;44.534;18.696;2022-11-23T14:20:42;179.68;;;133.45;;
49710;SDS011;35602;44.534;18.696;2022-11-23T14:26:07;179.20;;;132.05;;
49710;SDS011;35602;44.534;18.696;2022-11-23T14:43:02;166.50;;;124.95;;
49710;SDS011;35602;44.534;18.696;2022-11-23T14:48:24;160.73;;;121.78;;
49710;SDS011;35602;44.534;18.696;2022-11-23T14:53:37;160.63;;;119.03;;
49710;SDS011;35602;44.534;18.696;2022-11-23T14:58:40;162.52;;;122.05;;
49710;SDS011;35602;44.534;18.696;2022-11-23T15:03:41;164.82;;;125.07;;
49710;SDS011;35602;44.534;18.696;2022-11-23T15:08:45;157.88;;;120.53;;
49710;SDS011;35602;44.534;18.696;2022-11-23T15:13:56;160.10;;;121.93;;
49710;SDS011;35602;44.534;18.696;2022-11-23T15:19:15;162.60;;;122.87;;
49710;SDS011;35602;44.534;18.696;2022-11-23T15:24:21;155.15;;;120.10;;
49710;SDS011;35602;44.534;18.696;2022-11-23T15:29:27;152.57;;;118.80;;
49710;SDS011;35602;44.534;18.696;2022-11-23T15:34:29;157.85;;;121.43;;
49710;SDS011;35602;44.534;18.696;2022-11-23T15:39:30;154.35;;;122.35;;
49710;SDS011;35602;44.534;18.696;2022-11-23T15:44:31;155.98;;;121.97;;
49710;SDS011;35602;44.534;18.696;2022-11-23T15:49:38;158.73;;;123.57;;
49710;SDS011;35602;44.534;18.696;2022-11-23T15:54:39;155.77;;;120.20;;
49710;SDS011;35602;44.534;18.696;2022-11-23T15:59:44;161.07;;;124.80;;
49710;SDS011;35602;44.534;18.696;2022-11-23T16:15:58;160.27;;;121.75;;
49710;SDS011;35602;44.534;18.696;2022-11-23T16:21:00;155.45;;;120.82;;
49710;SDS011;35602;44.534;18.696;2022-11-23T16:26:04;157.10;;;119.93;;
49710;SDS011;35602;44.534;18.696;2022-11-23T16:31:05;156.63;;;123.18;;
49710;SDS011;35602;44.534;18.696;2022-11-23T16:36:27;151.35;;;120.37;;
49710;SDS011;35602;44.534;18.696;2022-11-23T16:41:28;152.50;;;120.53;;
49710;SDS011;35602;44.534;18.696;2022-11-23T16:46:30;151.93;;;119.37;;
49710;SDS011;35602;44.534;18.696;2022-11-23T16:51:31;155.18;;;118.85;;
49710;SDS011;35602;44.534;18.696;2022-11-23T16:56:32;146.90;;;114.62;;
49710;SDS011;35602;44.534;18.696;2022-11-23T17:01:34;151.12;;;117.85;;
49710;SDS011;35602;44.534;18.696;2022-11-23T17:06:37;150.27;;;115.07;;
49710;SDS011;35602;44.534;18.696;2022-11-23T17:11:41;149.45;;;116.80;;
49710;SDS011;35602;44.534;18.696;2022-11-23T17:16:44;145.32;;;116.03;;
49710;SDS011;35602;44.534;18.696;2022-11-23T17:21:45;147.18;;;113.15;;
49710;SDS011;35602;44.534;18.696;2022-11-23T17:26:47;147.02;;;116.10;;
49710;SDS011;35602;44.534;18.696;2022-11-23T17:31:52;151.02;;;116.37;;
49710;SDS011;35602;44.534;18.696;2022-11-23T17:36:53;148.20;;;115.70;;
49710;SDS011;35602;44.534;18.696;2022-11-23T17:41:54;147.68;;;117.78;;
49710;SDS011;35602;44.534;18.696;2022-11-23T17:46:56;147.98;;;117.47;;
49710;SDS011;35602;44.534;18.696;2022-11-23T17:51:59;151.68;;;116.95;;
49710;SDS011;35602;44.534;18.696;2022-11-23T17:56:59;155.27;;;120.65;;
49710;SDS011;35602;44.534;18.696;2022-11-23T18:02:00;147.60;;;115.72;;
49710;SDS011;35602;44.534;18.696;2022-11-23T18:07:01;146.23;;;115.45;;
49710;SDS011;35602;44.534;18.696;2022-11-23T18:12:02;149.87;;;116.85;;
49710;SDS011;35602;44.534;18.696;2022-11-23T18:17:03;147.70;;;117.95;;
49710;SDS011;35602;44.534;18.696;2022-11-23T18:22:04;154.50;;;119.32;;
49710;SDS011;35602;44.534;18.696;2022-11-23T18:27:05;142.73;;;114.82;;
49710;SDS011;35602;44.534;18.696;2022-11-23T18:32:06;147.77;;;115.82;;
49710;SDS011;35602;44.534;18.696;2022-11-23T18:37:07;143.57;;;114.53;;
49710;SDS011;35602;44.534;18.696;2022-11-23T18:42:08;154.95;;;117.70;;
49710;SDS011;35602;44.534;18.696;2022-11-23T18:47:09;145.48;;;113.78;;
49710;SDS011;35602;44.534;18.696;2022-11-23T18:52:10;143.30;;;112.68;;
49710;SDS011;35602;44.534;18.696;2022-11-23T18:57:12;146.87;;;114.30;;
49710;SDS011;35602;44.534;18.696;2022-11-23T19:02:15;151.87;;;114.95;;
49710;SDS011;35602;44.534;18.696;2022-11-23T19:07:16;144.20;;;115.07;;
49710;SDS011;35602;44.534;18.696;2022-11-23T19:12:17;147.90;;;114.10;;
49710;SDS011;35602;44.534;18.696;2022-11-23T19:17:18;134.55;;;107.22;;
49710;SDS011;35602;44.534;18.696;2022-11-23T19:22:19;137.95;;;107.72;;
49710;SDS011;35602;44.534;18.696;2022-11-23T19:27:20;135.35;;;108.68;;
49710;SDS011;35602;44.534;18.696;2022-11-23T19:32:21;139.23;;;106.28;;
49710;SDS011;35602;44.534;18.696;2022-11-23T19:37:21;131.02;;;105.25;;
49710;SDS011;35602;44.534;18.696;2022-11-23T19:42:22;134.87;;;106.10;;
49710;SDS011;35602;44.534;18.696;2022-11-23T19:47:23;134.35;;;103.65;;
49710;SDS011;35602;44.534;18.696;2022-11-23T19:52:24;132.43;;;103.50;;
49710;SDS011;35602;44.534;18.696;2022-11-23T19:57:27;128.68;;;101.60;;
49710;SDS011;35602;44.534;18.696;2022-11-23T20:02:28;128.80;;;103.03;;
49710;SDS011;35602;44.534;18.696;2022-11-23T20:07:29;127.60;;;99.28;;
49710;SDS011;35602;44.534;18.696;2022-11-23T20:12:30;123.00;;;100.20;;
49710;SDS011;35602;44.534;18.696;2022-11-23T20:17:32;125.18;;;96.78;;
49710;SDS011;35602;44.534;18.696;2022-11-23T20:22:33;117.68;;;93.12;;
49710;SDS011;35602;44.534;18.696;2022-11-23T20:27:34;122.22;;;94.82;;
49710;SDS011;35602;44.534;18.696;2022-11-23T20:32:34;123.87;;;96.95;;
49710;SDS011;35602;44.534;18.696;2022-11-23T20:37:35;121.05;;;95.12;;
49710;SDS011;35602;44.534;18.696;2022-11-23T20:42:36;116.32;;;91.40;;
49710;SDS011;35602;44.534;18.696;2022-11-23T20:47:37;115.80;;;90.78;;
49710;SDS011;35602;44.534;18.696;2022-11-23T20:52:38;113.28;;;89.72;;
49710;SDS011;35602;44.534;18.696;2022-11-23T20:57:39;112.65;;;89.82;;
49710;SDS011;35602;44.534;18.696;2022-11-23T21:02:39;112.65;;;91.07;;
49710;SDS011;35602;44.534;18.696;2022-11-23T21:07:40;109.07;;;87.47;;
49710;SDS011;35602;44.534;18.696;2022-11-23T21:12:41;110.60;;;87.00;;
49710;SDS011;35602;44.534;18.696;2022-11-23T21:18:00;108.05;;;88.28;;
49710;SDS011;35602;44.534;18.696;2022-11-23T21:23:01;108.37;;;85.55;;
49710;SDS011;35602;44.534;18.696;2022-11-23T21:28:02;103.00;;;81.47;;
49710;SDS011;35602;44.534;18.696;2022-11-23T21:33:03;102.40;;;81.37;;
49710;SDS011;35602;44.534;18.696;2022-11-23T21:38:04;102.43;;;84.15;;
49710;SDS011;35602;44.534;18.696;2022-11-23T21:43:05;105.12;;;83.37;;
49710;SDS011;35602;44.534;18.696;2022-11-23T21:48:06;98.43;;;78.95;;
49710;SDS011;35602;44.534;18.696;2022-11-23T21:53:07;98.40;;;77.57;;
49710;SDS011;35602;44.534;18.696;2022-11-23T21:58:08;96.22;;;76.95;;
49710;SDS011;35602;44.534;18.696;2022-11-23T22:03:09;93.97;;;76.53;;
49710;SDS011;35602;44.534;18.696;2022-11-23T22:08:10;93.37;;;74.62;;
49710;SDS011;35602;44.534;18.696;2022-11-23T22:13:11;94.57;;;75.78;;
49710;SDS011;35602;44.534;18.696;2022-11-23T22:18:12;92.75;;;74.05;;
49710;SDS011;35602;44.534;18.696;2022-11-23T22:23:13;89.03;;;72.10;;
49710;SDS011;35602;44.534;18.696;2022-11-23T22:28:14;96.85;;;75.25;;
49710;SDS011;35602;44.534;18.696;2022-11-23T22:33:14;86.93;;;68.53;;
49710;SDS011;35602;44.534;18.696;2022-11-23T22:38:15;89.03;;;70.87;;
49710;SDS011;35602;44.534;18.696;2022-11-23T22:43:16;92.37;;;72.68;;
49710;SDS011;35602;44.534;18.696;2022-11-23T22:48:17;83.68;;;67.07;;
49710;SDS011;35602;44.534;18.696;2022-11-23T22:53:18;87.40;;;70.80;;
49710;SDS011;35602;44.534;18.696;2022-11-23T22:58:19;84.37;;;66.93;;
49710;SDS011;35602;44.534;18.696;2022-11-23T23:03:20;82.03;;;64.80;;
49710;SDS011;35602;44.534;18.696;2022-11-23T23:08:21;84.62;;;66.10;;
49710;SDS011;35602;44.534;18.696;2022-11-23T23:13:22;78.20;;;64.03;;
49710;SDS011;35602;44.534;18.696;2022-11-23T23:18:23;80.95;;;65.20;;
49710;SDS011;35602;44.534;18.696;2022-11-23T23:23:23;77.85;;;62.40;;
49710;SDS011;35602;44.534;18.696;2022-11-23T23:28:24;78.30;;;63.90;;
49710;SDS011;35602;44.534;18.696;2022-11-23T23:33:25;78.82;;;62.20;;
49710;SDS011;35602;44.534;18.696;2022-11-23T23:38:28;76.95;;;62.08;;
49710;SDS011;35602;44.534;18.696;2022-11-23T23:43:30;75.35;;;60.47;;
49710;SDS011;35602;44.534;18.696;2022-11-23T23:48:31;74.25;;;59.50;;
49710;SDS011;35602;44.534;18.696;2022-11-23T23:53:34;74.97;;;58.55;;
49710;SDS011;35602;44.534;18.696;2022-11-23T23:58:35;72.62;;;59.92;;
